createdAt,value
2022-12-31T00:01:56.674Z,100053.59
2022-12-31T00:06:58.183Z,100067.06
2022-12-31T00:11:59.611Z,100081.56
2022-12-31T00:17:01.048Z,100088.63
2022-12-31T00:22:02.493Z,100095.22
2022-12-31T00:27:03.952Z,100120.78
2022-12-31T00:32:05.795Z,100106.56
2022-12-31T00:37:07.223Z,100116.47
2022-12-31T00:42:08.645Z,100117.41
2022-12-31T00:47:10.067Z,100118.41
2022-12-31T00:52:13.833Z,100145.69
2022-12-31T00:57:15.262Z,100134.13
2022-12-31T01:02:16.857Z,100160.03
2022-12-31T01:07:18.436Z,100149.91
2022-12-31T01:12:19.878Z,100163.16
2022-12-31T01:17:21.480Z,100158.09
2022-12-31T01:22:22.852Z,100163.00
2022-12-31T01:27:24.291Z,100172.94
2022-12-31T01:32:25.718Z,100168.28
2022-12-31T01:37:28.018Z,100175.56
2022-12-31T01:42:29.469Z,100169.94
2022-12-31T01:47:37.420Z,100171.03
2022-12-31T01:52:42.516Z,100180.63
2022-12-31T01:57:47.574Z,100182.22
2022-12-31T02:02:49.703Z,100168.84
2022-12-31T02:07:53.320Z,100176.69
2022-12-31T02:12:55.095Z,100197.44
2022-12-31T02:18:01.252Z,100190.41
2022-12-31T02:23:27.149Z,100180.06
2022-12-31T02:28:31.698Z,100182.41
2022-12-31T02:33:38.831Z,100188.69
2022-12-31T02:38:44.615Z,100177.13
2022-12-31T02:43:47.224Z,100164.28
2022-12-31T02:48:55.911Z,100177.69
2022-12-31T02:54:16.750Z,100187.47
2022-12-31T02:59:59.474Z,100175.41
2022-12-31T03:05:02.352Z,100164.19
2022-12-31T03:10:04.024Z,100151.00
2022-12-31T03:15:07.009Z,100179.38
2022-12-31T03:20:27.601Z,100184.53
2022-12-31T03:25:40.851Z,100200.53
2022-12-31T03:30:44.981Z,100193.13
2022-12-31T03:35:48.422Z,100193.59
2022-12-31T03:40:52.326Z,100191.00
2022-12-31T03:45:55.062Z,100188.53
2022-12-31T03:50:56.461Z,100201.66
2022-12-31T03:55:57.857Z,100190.28
2022-12-31T04:00:59.401Z,100198.47
2022-12-31T04:06:00.902Z,100190.47
2022-12-31T04:11:02.318Z,100199.59
2022-12-31T04:16:03.852Z,100180.47
2022-12-31T04:21:05.879Z,100163.75
2022-12-31T04:26:07.531Z,100176.72
2022-12-31T04:31:09.089Z,100175.97
2022-12-31T04:36:10.812Z,100196.25
2022-12-31T04:41:18.029Z,100201.88
2022-12-31T04:46:22.470Z,100208.94
2022-12-31T04:51:24.738Z,100218.22
2022-12-31T04:56:27.439Z,100229.41
2022-12-31T05:01:28.913Z,100213.34
2022-12-31T05:06:30.425Z,100230.34
2022-12-31T05:11:31.930Z,100222.16
2022-12-31T05:16:33.402Z,100229.69
2022-12-31T05:21:35.274Z,100219.31
2022-12-31T05:26:36.737Z,100229.94
2022-12-31T05:31:38.151Z,100243.84
2022-12-31T05:36:39.691Z,100248.97
2022-12-31T05:41:41.071Z,100258.25
2022-12-31T05:46:42.531Z,100254.59
2022-12-31T05:51:44.206Z,100269.47
2022-12-31T05:56:45.625Z,100256.41
2022-12-31T06:01:47.177Z,100267.84
2022-12-31T06:06:49.081Z,100276.66
2022-12-31T06:11:50.533Z,100260.13
2022-12-31T06:16:51.940Z,100271.16
2022-12-31T06:21:53.355Z,100276.31
2022-12-31T06:26:54.778Z,100282.53
2022-12-31T06:31:56.256Z,100282.94
2022-12-31T06:36:59.145Z,100289.16
2022-12-31T06:42:00.670Z,100301.63
2022-12-31T06:47:02.239Z,100280.22
2022-12-31T06:52:03.756Z,100299.44
2022-12-31T06:57:05.584Z,100295.63
2022-12-31T07:02:28.880Z,100299.78
2022-12-31T07:07:53.640Z,100297.38
2022-12-31T07:13:07.667Z,100298.03
2022-12-31T07:18:28.781Z,100293.72
2022-12-31T07:23:30.509Z,100302.19
2022-12-31T07:28:38.619Z,100312.78
2022-12-31T07:33:47.776Z,100321.69
2022-12-31T07:39:08.645Z,100343.44
2022-12-31T07:44:49.106Z,100337.56
2022-12-31T07:49:50.689Z,100337.22
2022-12-31T07:54:52.190Z,100355.44
2022-12-31T08:00:05.436Z,100337.81
2022-12-31T08:05:32.067Z,100351.41
2022-12-31T08:10:55.346Z,100365.84
2022-12-31T08:15:57.053Z,100361.72
2022-12-31T08:21:04.775Z,100370.56
2022-12-31T08:26:14.849Z,100378.50
2022-12-31T08:31:21.211Z,100387.88
2022-12-31T08:36:45.348Z,100387.69
2022-12-31T08:41:51.148Z,100392.06
2022-12-31T08:47:34.160Z,100379.97
2022-12-31T08:52:38.768Z,100378.69
2022-12-31T08:58:04.993Z,100382.66
2022-12-31T09:03:31.099Z,100395.78
2022-12-31T09:08:56.143Z,100406.09
2022-12-31T09:14:14.363Z,100403.19
2022-12-31T09:19:15.790Z,100402.56
2022-12-31T09:24:17.533Z,100402.44
2022-12-31T09:29:38.577Z,100388.84
2022-12-31T09:35:04.163Z,100400.22
2022-12-31T09:40:46.069Z,100399.06
2022-12-31T09:46:09.751Z,100400.69
2022-12-31T09:51:21.673Z,100398.09
2022-12-31T09:56:36.395Z,100399.50
2022-12-31T10:02:05.520Z,100412.09
2022-12-31T10:07:29.219Z,100401.59
2022-12-31T10:12:52.568Z,100403.38
2022-12-31T10:18:35.339Z,100372.19
2022-12-31T10:24:02.912Z,100388.22
2022-12-31T10:29:29.421Z,100379.53
2022-12-31T10:34:52.759Z,100366.34
2022-12-31T10:40:09.567Z,100391.50
2022-12-31T10:45:26.326Z,100393.34
2022-12-31T10:51:02.864Z,100376.44
2022-12-31T10:56:45.171Z,100382.31
2022-12-31T11:02:19.026Z,100389.19
2022-12-31T11:07:50.161Z,100379.03
2022-12-31T11:13:06.710Z,100367.31
2022-12-31T11:18:36.039Z,100373.84
2022-12-31T11:24:01.447Z,100372.25
2022-12-31T11:29:23.403Z,100372.25
2022-12-31T11:34:51.793Z,100371.81
2022-12-31T11:40:21.593Z,100355.13
2022-12-31T11:45:53.918Z,100357.91
2022-12-31T11:51:13.195Z,100345.19
2022-12-31T11:56:20.700Z,100340.13
2022-12-31T12:01:30.691Z,100334.34
2022-12-31T12:06:33.181Z,100337.22
2022-12-31T12:11:39.272Z,100320.28
2022-12-31T12:16:40.879Z,100322.41
2022-12-31T12:21:49.328Z,100328.31
2022-12-31T12:26:50.892Z,100330.38
2022-12-31T12:32:07.481Z,100339.31
2022-12-31T12:37:24.072Z,100334.13
2022-12-31T12:42:25.563Z,100328.34
2022-12-31T12:47:27.197Z,100334.94
2022-12-31T12:53:01.007Z,100335.06
2022-12-31T12:58:19.469Z,100310.47
2022-12-31T13:09:29.996Z,100305.66
2022-12-31T13:14:52.340Z,100297.34
2022-12-31T13:19:57.899Z,100296.03
2022-12-31T13:25:07.841Z,100299.53
2022-12-31T13:30:35.209Z,100301.41
2022-12-31T13:35:44.711Z,100302.78
2022-12-31T13:40:48.349Z,100298.06
2022-12-31T13:46:09.473Z,100291.72
2022-12-31T13:51:21.114Z,100290.72
2022-12-31T13:56:27.290Z,100294.09
2022-12-31T14:01:36.887Z,100293.88
2022-12-31T14:06:45.899Z,100294.53
2022-12-31T14:12:04.688Z,100297.69
2022-12-31T14:17:14.869Z,100295.03
2022-12-31T14:22:54.873Z,100306.13
2022-12-31T14:27:57.513Z,100296.88
2022-12-31T14:33:15.950Z,100313.72
2022-12-31T14:38:33.221Z,100319.44
2022-12-31T14:43:53.198Z,100310.66
2022-12-31T14:49:00.536Z,100303.44
2022-12-31T14:54:02.161Z,100308.25
2022-12-31T14:59:04.008Z,100316.63
2022-12-31T15:04:14.288Z,100305.28
2022-12-31T15:09:34.097Z,100306.00
2022-12-31T15:15:00.421Z,100301.03
2022-12-31T15:20:14.994Z,100297.28
2022-12-31T15:25:21.597Z,100302.88
2022-12-31T15:30:38.451Z,100304.97
2022-12-31T15:35:52.791Z,100311.69
2022-12-31T15:40:54.364Z,100307.56
2022-12-31T15:45:57.683Z,100309.34
2022-12-31T15:51:01.394Z,100318.34
2022-12-31T15:56:03.619Z,100323.69
2022-12-31T16:01:42.029Z,100331.38
2022-12-31T16:06:50.431Z,100342.22
2022-12-31T16:11:54.407Z,100348.75
2022-12-31T16:16:59.100Z,100352.25
2022-12-31T16:22:28.835Z,100364.91
2022-12-31T16:27:31.080Z,100375.53
2022-12-31T16:32:38.331Z,100368.09
2022-12-31T16:37:39.865Z,100381.19
2022-12-31T16:42:44.429Z,100379.16
2022-12-31T16:47:46.242Z,100376.94
2022-12-31T16:52:54.257Z,100379.97
2022-12-31T16:58:01.712Z,100380.50
2022-12-31T17:03:20.008Z,100389.53
2022-12-31T17:08:28.193Z,100375.53
2022-12-31T17:13:34.002Z,100377.03
2022-12-31T17:18:38.521Z,100376.28
2022-12-31T17:23:41.449Z,100372.13
2022-12-31T17:28:48.773Z,100366.63
2022-12-31T17:33:54.041Z,100371.44
2022-12-31T17:38:55.598Z,100376.22
2022-12-31T17:43:57.798Z,100372.50
2022-12-31T17:49:02.550Z,100381.88
2022-12-31T17:54:13.555Z,100374.88
2022-12-31T17:59:22.139Z,100378.81
2022-12-31T18:04:23.606Z,100396.41
2022-12-31T18:09:25.089Z,100388.53
2022-12-31T18:14:26.513Z,100398.59
2022-12-31T18:20:02.722Z,100400.03
2022-12-31T18:24:52.198Z,100408.50
2022-12-31T18:29:55.742Z,100413.25
2022-12-31T18:35:03.192Z,100420.97
2022-12-31T18:40:05.158Z,100426.81
2022-12-31T18:45:16.634Z,100424.16
2022-12-31T18:50:18.191Z,100418.63
2022-12-31T18:55:26.962Z,100408.34
2022-12-31T19:00:28.376Z,100395.28
2022-12-31T19:05:32.118Z,100382.75
2022-12-31T19:10:33.980Z,100380.59
2022-12-31T19:15:43.123Z,100393.16
2022-12-31T19:20:44.961Z,100387.19
2022-12-31T19:25:47.717Z,100394.03
2022-12-31T19:30:49.599Z,100383.50
2022-12-31T19:35:51.071Z,100382.34
2022-12-31T19:40:53.567Z,100375.91
2022-12-31T19:45:55.073Z,100379.16
2022-12-31T19:50:56.648Z,100377.13
2022-12-31T19:55:58.056Z,100375.66
2022-12-31T20:01:02.845Z,100377.56
2022-12-31T20:06:10.845Z,100382.72
2022-12-31T20:11:20.394Z,100392.50
2022-12-31T20:16:26.576Z,100408.78
2022-12-31T20:21:29.411Z,100412.06
2022-12-31T20:26:30.867Z,100424.72
2022-12-31T20:31:32.423Z,100425.34
2022-12-31T20:36:33.830Z,100431.66
2022-12-31T20:41:35.294Z,100433.78
2022-12-31T20:46:36.956Z,100426.22
2022-12-31T20:51:38.375Z,100428.72
2022-12-31T20:56:41.536Z,100427.72
2022-12-31T21:02:19.276Z,100439.91
2022-12-31T21:07:04.497Z,100423.56
2022-12-31T21:12:24.775Z,100425.22
2022-12-31T21:17:26.209Z,100421.06
2022-12-31T21:22:27.700Z,100428.63
2022-12-31T21:27:29.764Z,100434.31
2022-12-31T21:32:31.162Z,100435.06
2022-12-31T21:37:58.788Z,100445.91
2022-12-31T21:42:54.036Z,100447.81
2022-12-31T21:48:17.831Z,100456.03
2022-12-31T21:53:26.168Z,100455.44
2022-12-31T21:58:29.579Z,100467.34
2022-12-31T22:03:31.850Z,100477.50
2022-12-31T22:08:33.403Z,100474.50
2022-12-31T22:13:36.161Z,100484.00
2022-12-31T22:18:40.543Z,100490.63
2022-12-31T22:23:42.841Z,100490.97
2022-12-31T22:28:46.088Z,100494.56
2022-12-31T22:33:48.052Z,100493.88
2022-12-31T22:38:50.958Z,100504.66
2022-12-31T22:44:02.619Z,100512.44
2022-12-31T22:49:05.182Z,100516.94
2022-12-31T22:54:06.636Z,100524.19
2022-12-31T22:59:08.293Z,100526.94
2022-12-31T23:04:09.895Z,100532.38
2022-12-31T23:09:31.785Z,100541.75
2022-12-31T23:14:52.324Z,100543.47
2022-12-31T23:20:12.622Z,100544.38
2022-12-31T23:25:14.055Z,100533.88
2022-12-31T23:30:15.606Z,100531.47
2022-12-31T23:35:17.149Z,100535.94
2022-12-31T23:40:21.536Z,100533.53
2022-12-31T23:45:25.874Z,100539.72
2022-12-31T23:50:31.193Z,100551.81
2022-12-31T23:55:32.937Z,100542.44
